Time;durP1;ratioP1;P1;durP2;ratioP2;P2;SDS_P1;SDS_P2;PMS_P1;PMS_P2;Temp;Humidity;BMP_temperature;BMP_pressure;BME280_temperature;BME280_humidity;BME280_pressure;Samples;Min_cycle;Max_cycle;Signal;HPM_P1;HPM_P2
2022/07/11 07:41:50;;;;;;;;;3.00;3.00;;;;;50.28;18.09;101826.03;5077940;27;1340600;-79
2022/07/11 07:44:15;;;;;;;;;1.75;0.50;;;;;51.30;16.88;101831.59;5101230;27;47170;-82
2022/07/11 07:46:41;;;;;;;;;1.25;1.25;;;;;52.00;16.43;101840.59;5085241;27;46004;-85
2022/07/11 07:49:06;;;;;;;;;2.00;2.00;;;;;52.78;15.29;101842.78;5070475;27;45533;-85
2022/07/11 07:51:32;;;;;;;;;2.75;1.00;;;;;53.23;13.27;101831.03;5111815;27;45827;-85
2022/07/11 07:53:57;;;;;;;;;1.50;1.50;;;;;53.59;14.81;101835.50;5092820;27;47044;-86
2022/07/11 07:56:24;;;;;;;;;1.25;1.25;;;;;53.92;14.18;101835.00;5082901;27;45480;-87
2022/07/11 07:58:51;;;;;;;;;1.50;1.50;;;;;54.48;14.00;101837.34;5091273;27;45639;-86
2022/07/11 08:01:35;;;;;;;;;2.75;2.50;;;;;54.94;13.72;101828.84;5089487;27;45460;-88
2022/07/11 08:04:04;;;;;;;;;2.75;2.00;;;;;55.21;13.39;101834.13;5112901;27;45527;-86
2022/07/11 08:06:31;;;;;;;;;1.00;1.00;;;;;55.61;12.92;101831.88;5116044;27;46529;-85
2022/07/11 08:08:56;;;;;;;;;2.00;1.25;;;;;55.64;13.26;101831.13;5097122;27;45400;-83
2022/07/11 08:11:22;;;;;;;;;1.00;0.75;;;;;56.18;12.55;101836.25;5111801;27;45911;-86
2022/07/11 08:13:49;;;;;;;;;2.25;1.50;;;;;56.36;11.57;101831.59;5115975;27;45984;-84
2022/07/11 08:16:14;;;;;;;;;3.00;2.00;;;;;57.55;11.29;101835.75;5113922;27;45402;-84
2022/07/11 08:18:39;;;;;;;;;3.00;3.00;;;;;58.00;11.66;101836.38;5115900;27;45532;-84
2022/07/11 08:21:05;;;;;;;;;1.00;1.00;;;;;58.01;10.64;101827.41;5094910;27;45466;-84
2022/07/11 08:23:30;;;;;;;;;6.75;2.25;;;;;57.96;10.41;101818.47;5093775;27;48494;-84
2022/07/11 08:25:56;;;;;;;;;2.00;2.00;;;;;58.21;10.49;101815.69;5115961;27;45510;-84
2022/07/11 08:28:22;;;;;;;;;2.00;2.00;;;;;58.60;10.60;101810.84;5114965;27;45480;-85
2022/07/11 08:30:47;;;;;;;;;2.00;2.00;;;;;59.26;10.45;101810.34;5115806;27;45298;-84
2022/07/11 08:33:13;;;;;;;;;3.25;2.00;;;;;59.45;10.12;101807.88;5099710;27;47130;-84
2022/07/11 08:35:39;;;;;;;;;3.25;2.00;;;;;60.24;10.11;101800.50;5118410;27;45897;-85
2022/07/11 08:38:04;;;;;;;;;1.75;1.50;;;;;60.82;9.16;101798.78;5114423;27;45540;-84
2022/07/11 08:40:29;;;;;;;;;3.50;2.00;;;;;60.80;9.29;101783.31;5096620;27;45726;-85
2022/07/11 08:42:57;;;;;;;;;3.25;2.00;;;;;60.94;8.82;101786.81;5114895;27;46488;-85
2022/07/11 08:45:29;;;;;;;;;4.25;2.75;;;;;61.72;9.16;101787.91;5114524;27;46472;-85
2022/07/11 08:47:57;;;;;;;;;3.00;2.00;;;;;61.29;9.28;101787.63;5115978;27;45897;-84
2022/07/11 08:50:23;;;;;;;;;3.50;2.00;;;;;61.30;9.01;101783.53;5110418;27;46382;-85
2022/07/11 08:52:48;;;;;;;;;3.75;3.00;;;;;62.13;8.74;101773.38;5111211;27;46187;-85
2022/07/11 08:55:14;;;;;;;;;5.75;3.00;;;;;62.58;7.73;101770.97;5092739;27;46351;-85
2022/07/11 08:57:39;;;;;;;;;1.25;1.25;;;;;62.65;8.84;101770.84;5103555;27;45781;-84
2022/07/11 09:00:08;;;;;;;;;2.50;2.00;;;;;62.69;8.46;101783.03;5098690;27;46017;-85
2022/07/11 09:02:35;;;;;;;;;3.25;1.75;;;;;63.20;7.98;101777.94;5113587;27;46301;-85
2022/07/11 09:05:05;;;;;;;;;2.00;2.00;;;;;63.77;7.92;101770.97;5113693;27;45448;-84
2022/07/11 09:07:31;;;;;;;;;1.50;1.50;;;;;63.86;7.57;101781.84;5115542;27;45473;-85
2022/07/11 09:09:56;;;;;;;;;2.00;1.25;;;;;63.58;8.15;101775.50;5114054;27;45868;-86
2022/07/11 09:12:22;;;;;;;;;2.50;1.50;;;;;63.38;7.95;101774.75;5112754;27;46395;-85
2022/07/11 09:14:49;;;;;;;;;3.25;3.25;;;;;63.09;7.84;101775.34;5115385;27;45665;-85
2022/07/11 09:17:15;;;;;;;;;2.00;2.00;;;;;63.26;7.65;101764.75;5123353;27;44827;-85
2022/07/11 09:19:41;;;;;;;;;3.00;2.00;;;;;63.01;7.84;101759.53;5109680;27;45424;-85
2022/07/11 09:27:48;;;;;;;;;2.00;2.00;;;;;65.25;7.20;101757.53;5109072;27;45515;-83
2022/07/11 09:30:20;;;;;;;;;3.00;2.00;;;;;64.73;7.13;101754.16;5112872;27;45603;-85
2022/07/11 09:32:57;;;;;;;;;2.25;0.25;;;;;63.98;7.30;101752.44;5110036;27;45568;-84
2022/07/11 09:35:25;;;;;;;;;3.75;3.75;;;;;63.77;7.64;101740.19;5090023;27;45722;-82
2022/07/11 09:37:51;;;;;;;;;4.50;2.00;;;;;63.57;7.73;101745.19;5092616;27;45505;-86
2022/07/11 09:40:17;;;;;;;;;2.50;2.50;;;;;64.01;7.32;101734.31;5114204;27;45834;-84
2022/07/11 09:42:51;;;;;;;;;1.00;1.00;;;;;64.57;7.83;101746.34;5092161;27;48264;-87
2022/07/11 09:45:18;;;;;;;;;2.00;1.50;;;;;64.95;7.23;101743.66;5090275;27;46217;-81
2022/07/11 09:47:48;;;;;;;;;2.75;1.25;;;;;65.32;6.61;101739.25;5096868;27;46408;-81
2022/07/11 09:50:22;;;;;;;;;2.25;2.00;;;;;65.42;6.43;101741.00;5094477;27;45851;-81
2022/07/11 09:53:11;;;;;;;;;2.00;2.00;;;;;65.36;6.97;101742.84;5095248;27;46377;-82
2022/07/11 09:55:37;;;;;;;;;4.00;3.00;;;;;65.29;6.86;101751.69;5094739;27;45765;-81
2022/07/11 09:58:04;;;;;;;;;1.00;1.00;;;;;65.73;6.69;101738.38;5108316;27;46042;-80
2022/07/11 10:00:31;;;;;;;;;1.50;1.50;;;;;65.66;6.49;101743.56;5112478;27;45831;-82
2022/07/11 10:02:58;;;;;;;;;2.50;1.50;;;;;66.00;7.05;101740.78;5110934;27;45600;-82
2022/07/11 10:05:24;;;;;;;;;3.50;2.25;;;;;66.01;6.44;101736.63;5111470;27;45691;-81
2022/07/11 10:07:50;;;;;;;;;2.75;2.00;;;;;65.85;7.01;101742.47;5109400;27;45526;-80
2022/07/11 10:10:16;;;;;;;;;3.00;2.00;;;;;66.08;6.60;101733.50;5111368;27;46250;-82
2022/07/11 10:12:46;;;;;;;;;1.25;1.25;;;;;64.52;6.33;101738.31;5116596;27;45958;-83
2022/07/11 10:15:15;;;;;;;;;2.00;2.00;;;;;63.31;6.41;101737.59;5093839;27;45469;-82
2022/07/11 10:18:02;;;;;;;;;2.00;2.00;;;;;63.39;7.46;101730.44;5113673;27;45561;-81
2022/07/11 10:20:37;;;;;;;;;2.00;1.00;;;;;63.91;7.39;101726.78;5111387;27;45770;-81
2022/07/11 10:23:14;;;;;;;;;2.00;2.00;;;;;63.98;6.64;101736.03;5111844;27;45705;-79
2022/07/11 10:26:16;;;;;;;;;3.50;2.00;;;;;63.33;7.53;101735.09;5105122;27;46744;-81
2022/07/11 10:28:52;;;;;;;;;1.00;1.00;;;;;62.69;7.58;101734.34;5099397;27;45975;-79
2022/07/11 10:31:19;;;;;;;;;5.50;2.00;;;;;62.10;7.31;101736.25;5099676;27;46508;-80
2022/07/11 10:34:03;;;;;;;;;3.75;2.50;;;;;61.43;8.06;101740.94;5079097;27;47008;-79
2022/07/11 10:36:31;;;;;;;;;2.00;2.00;;;;;60.55;7.74;101738.69;5063994;27;45854;-81
2022/07/11 10:39:14;;;;;;;;;3.25;1.50;;;;;58.87;8.93;101731.50;5098883;27;45939;-80
2022/07/11 10:41:40;;;;;;;;;1.00;1.00;;;;;57.07;9.08;101737.66;5102397;27;45460;-81
2022/07/11 10:44:06;;;;;;;;;1.00;1.00;;;;;55.34;9.88;101731.94;5095143;27;45878;-80
2022/07/11 10:46:32;;;;;;;;;1.75;1.00;;;;;53.72;10.73;101725.97;5076787;27;45504;-82
2022/07/11 10:49:15;;;;;;;;;2.00;2.00;;;;;52.55;11.76;101726.13;5095653;27;46004;-80
2022/07/11 10:51:40;;;;;;;;;2.25;2.00;;;;;51.29;12.55;101739.84;5107759;27;45772;-81
2022/07/11 10:54:18;;;;;;;;;1.00;1.00;;;;;50.61;12.87;101731.25;5107311;27;46538;-81
2022/07/11 10:57:02;;;;;;;;;3.50;1.00;;;;;49.98;12.76;101725.00;5107349;27;45931;-81
2022/07/11 10:59:27;;;;;;;;;1.00;1.00;;;;;49.42;13.00;101730.09;5090396;27;46578;-81
2022/07/11 11:02:12;;;;;;;;;1.00;1.00;;;;;49.39;13.28;101727.16;5114712;27;45539;-82
2022/07/11 11:05:00;;;;;;;;;3.50;2.00;;;;;48.66;14.28;101735.00;5099119;27;47936;-82
2022/07/11 11:07:36;;;;;;;;;1.25;1.25;;;;;47.83;14.60;101734.53;5105787;27;45424;-83
2022/07/11 11:10:06;;;;;;;;;3.25;0.50;;;;;46.78;15.79;101723.50;5120651;27;45570;-82
2022/07/11 11:13:13;;;;;;;;;1.00;1.00;;;;;46.09;15.63;101715.53;5117224;27;45480;-82
2022/07/11 11:15:51;;;;;;;;;2.00;2.00;;;;;45.41;15.85;101713.00;5111963;27;46467;-82
2022/07/11 11:18:25;;;;;;;;;2.00;2.00;;;;;45.38;16.92;101717.25;5098503;27;45534;-82
2022/07/11 11:21:03;;;;;;;;;3.00;2.25;;;;;44.97;16.43;101708.94;5114602;27;46536;-82
2022/07/11 11:23:42;;;;;;;;;3.00;1.50;;;;;44.45;16.59;101701.88;5114203;27;45769;-85
2022/07/11 11:26:15;;;;;;;;;4.00;2.00;;;;;43.94;17.73;101705.59;5077031;27;48538;-83
2022/07/11 11:29:00;;;;;;;;;4.75;1.00;;;;;43.70;17.65;101721.56;5080916;27;45665;-80
2022/07/11 11:31:29;;;;;;;;;2.50;2.00;;;;;43.19;17.77;101713.91;5093937;27;46421;-82
2022/07/11 11:33:56;;;;;;;;;1.25;1.25;;;;;43.44;18.29;101718.28;5098449;27;45713;-82
2022/07/11 11:36:23;;;;;;;;;2.00;2.00;;;;;43.36;18.30;101712.56;5093795;27;46712;-82
2022/07/11 11:38:49;;;;;;;;;0.50;0.50;;;;;42.58;18.95;101707.41;5119271;27;45719;-82
2022/07/11 11:41:31;;;;;;;;;2.25;1.75;;;;;42.57;19.50;101706.56;5100631;27;47158;-81
2022/07/11 11:43:59;;;;;;;;;1.75;1.00;;;;;42.76;19.21;101701.94;5121040;27;45649;-81
2022/07/11 11:46:26;;;;;;;;;1.25;1.25;;;;;42.45;18.89;101692.25;5114004;27;47345;-81
2022/07/11 11:48:55;;;;;;;;;4.25;3.00;;;;;42.32;19.23;101696.53;5120217;27;45476;-81
2022/07/11 11:51:22;;;;;;;;;12.00;8.25;;;;;41.86;18.83;101698.03;5098890;27;45957;-81
2022/07/11 11:53:52;;;;;;;;;7.25;7.00;;;;;41.54;20.04;101693.00;5115165;27;46240;-82
2022/07/11 11:56:23;;;;;;;;;7.00;7.00;;;;;41.26;20.03;101692.59;5116429;27;45597;-82
2022/07/11 11:58:50;;;;;;;;;3.00;3.00;;;;;41.43;19.84;101690.25;5122578;27;45626;-82
2022/07/11 12:01:20;;;;;;;;;0.75;0.75;;;;;41.33;20.41;101684.81;5097970;27;45513;-82
2022/07/11 12:03:54;;;;;;;;;5.00;2.00;;;;;41.06;20.35;101687.97;5114810;27;45759;-83
2022/07/11 12:06:25;;;;;;;;;3.25;1.25;;;;;41.14;20.79;101672.72;5117429;27;45593;-81
2022/07/11 12:08:51;;;;;;;;;1.50;1.25;;;;;41.16;20.36;101680.75;5103470;27;45777;-80
2022/07/11 12:11:17;;;;;;;;;4.50;1.25;;;;;41.12;19.90;101683.25;5104179;27;45590;-81
2022/07/11 12:13:43;;;;;;;;;6.25;1.50;;;;;41.00;19.92;101677.19;5099891;27;45901;-81
2022/07/11 12:19:02;;;;;;;;;1.25;1.00;;;;;41.51;20.19;101676.94;5120939;27;45490;-80
2022/07/11 12:21:31;;;;;;;;;3.00;2.00;;;;;41.33;19.77;101668.16;5100047;27;45502;-79
2022/07/11 12:24:00;;;;;;;;;2.75;1.50;;;;;41.28;20.42;101673.72;5102228;27;45366;-80
2022/07/11 12:26:33;;;;;;;;;2.25;2.00;;;;;41.27;20.61;101671.25;5120094;27;45453;-80
2022/07/11 12:29:07;;;;;;;;;2.25;1.00;;;;;41.25;20.56;101671.53;5112715;27;45495;-81
2022/07/11 12:32:00;;;;;;;;;1.75;1.75;;;;;41.35;19.88;101670.63;5092467;27;45757;-80
2022/07/11 12:34:43;;;;;;;;;2.25;1.50;;;;;41.22;19.75;101672.13;5108081;27;45560;-82
2022/07/11 12:37:12;;;;;;;;;1.00;1.00;;;;;41.27;20.42;101682.31;5099565;27;48564;-83
2022/07/11 12:39:45;;;;;;;;;1.25;1.25;;;;;41.19;19.86;101666.28;5114451;27;45564;-84
2022/07/11 12:42:24;;;;;;;;;0.25;0.25;;;;;41.00;20.52;101669.69;5114726;27;45505;-83
2022/07/11 12:45:09;;;;;;;;;0.00;0.00;;;;;41.08;20.77;101663.53;5097924;27;45515;-83
2022/07/11 12:47:36;;;;;;;;;1.50;1.50;;;;;41.10;20.54;101658.59;5120872;27;45504;-83
2022/07/11 12:50:17;;;;;;;;;4.00;2.00;;;;;41.06;20.40;101649.16;5117355;27;45398;-83
2022/07/11 12:52:48;;;;;;;;;4.00;3.50;;;;;40.95;20.48;101633.72;5116546;27;45335;-83
2022/07/11 12:55:35;;;;;;;;;2.50;2.50;;;;;40.89;20.29;101658.94;5105196;27;45401;-83
2022/07/11 12:58:03;;;;;;;;;2.25;2.25;;;;;40.62;21.11;101664.81;5099535;27;46496;-83
2022/07/11 13:00:29;;;;;;;;;1.00;1.00;;;;;40.59;21.25;101643.25;5112397;27;45244;-83
2022/07/11 13:02:55;;;;;;;;;2.25;1.50;;;;;40.57;20.72;101648.25;5101723;27;45408;-83
2022/07/11 13:05:20;;;;;;;;;1.00;1.00;;;;;40.45;21.48;101642.19;5115168;27;45421;-83
2022/07/11 13:13:15;;;;;;;;;1.75;1.00;;;;;40.15;21.27;101641.13;5113655;27;45507;-83
2022/07/11 13:15:40;;;;;;;;;1.00;1.00;;;;;40.12;21.69;101640.84;5117355;27;45395;-83
2022/07/11 13:18:07;;;;;;;;;1.00;0.75;;;;;40.12;21.69;101655.53;5103969;27;47134;-83
2022/07/11 13:20:34;;;;;;;;;1.00;1.00;;;;;40.23;21.09;101651.63;5103777;27;45393;-83
2022/07/11 13:22:59;;;;;;;;;3.00;1.25;;;;;40.23;21.61;101646.09;5101595;27;45396;-83
2022/07/11 13:25:26;;;;;;;;;2.25;0.75;;;;;40.24;21.62;101649.69;5116259;27;45174;-83
2022/07/11 13:27:52;;;;;;;;;2.50;1.25;;;;;40.24;20.97;101633.09;5116986;27;45618;-84
2022/07/11 13:30:23;;;;;;;;;2.50;2.50;;;;;40.20;21.41;101643.88;5119395;27;45570;-84
2022/07/11 13:32:50;;;;;;;;;1.00;1.00;;;;;40.22;21.41;101638.06;5101153;27;45453;-83
2022/07/11 13:35:16;;;;;;;;;2.00;0.75;;;;;40.01;21.88;101632.56;5113534;27;45505;-89
2022/07/11 13:37:42;;;;;;;;;1.25;1.25;;;;;39.79;21.73;101631.19;5115530;27;48717;-82
2022/07/11 13:40:13;;;;;;;;;2.25;1.00;;;;;39.67;22.03;101631.44;5114739;27;45312;-80
2022/07/11 13:42:40;;;;;;;;;1.50;1.00;;;;;40.08;21.89;101625.91;5111789;27;45385;-79
2022/07/11 13:45:07;;;;;;;;;2.00;2.00;;;;;40.12;21.93;101636.16;5122187;27;45652;-80
2022/07/11 13:47:32;;;;;;;;;5.25;3.75;;;;;40.12;21.17;101627.84;5113675;27;48224;-80
2022/07/11 13:49:59;;;;;;;;;3.00;3.00;;;;;40.14;21.63;101630.34;5106861;27;45404;-80
2022/07/11 13:52:24;;;;;;;;;2.25;2.00;;;;;40.21;21.81;101630.88;5129827;27;45436;-80
2022/07/11 13:54:50;;;;;;;;;1.00;1.00;;;;;40.60;20.90;101625.53;5118054;27;45827;-80
2022/07/11 13:57:15;;;;;;;;;1.00;0.25;;;;;40.54;21.46;101621.94;5109304;27;47462;-80
2022/07/11 13:59:41;;;;;;;;;2.50;1.75;;;;;40.61;21.33;101618.88;5112176;27;45505;-79
2022/07/11 14:02:07;;;;;;;;;2.00;2.00;;;;;40.64;21.62;101616.34;5132774;27;45544;-80
2022/07/11 14:04:33;;;;;;;;;2.25;2.00;;;;;40.46;21.55;101628.06;5129755;27;45503;-80
2022/07/11 14:06:59;;;;;;;;;2.00;2.00;;;;;40.27;20.86;101613.16;5127148;27;46470;-80
2022/07/11 14:09:24;;;;;;;;;2.00;2.00;;;;;40.37;21.03;101616.72;5107157;27;45893;-80
2022/07/11 14:11:50;;;;;;;;;2.00;2.00;;;;;40.55;20.76;101609.75;5134159;27;45404;-79
2022/07/11 14:14:16;;;;;;;;;4.00;2.00;;;;;41.05;20.52;101617.03;5113142;27;45491;-79
2022/07/11 14:16:42;;;;;;;;;1.25;1.25;;;;;41.12;20.43;101616.72;5112633;27;46989;-79
2022/07/11 14:19:10;;;;;;;;;2.25;2.25;;;;;41.05;20.92;101605.13;5110597;27;45759;-79
2022/07/11 14:21:36;;;;;;;;;3.00;2.25;;;;;41.07;21.04;101612.00;5102362;27;45509;-80
2022/07/11 14:24:02;;;;;;;;;3.00;2.00;;;;;41.29;20.44;101596.94;5124761;27;45487;-80
2022/07/11 14:26:28;;;;;;;;;2.00;2.00;;;;;40.91;20.98;101590.22;5109339;27;48876;-80
2022/07/11 14:28:53;;;;;;;;;2.75;1.75;;;;;40.79;20.66;101598.88;5108301;27;45763;-80
2022/07/11 14:31:19;;;;;;;;;2.00;2.00;;;;;40.91;20.97;101602.13;5128280;27;45523;-80
2022/07/11 14:33:45;;;;;;;;;1.25;1.25;;;;;40.76;21.01;101593.06;5126682;27;45429;-80
2022/07/11 14:36:10;;;;;;;;;1.75;1.75;;;;;40.74;21.42;101585.88;5121675;27;45202;-80
2022/07/11 14:38:36;;;;;;;;;2.75;2.50;;;;;40.71;20.90;101588.38;5108443;27;45334;-80
2022/07/11 14:41:02;;;;;;;;;3.50;3.00;;;;;40.62;20.93;101579.81;5112042;27;45511;-80
2022/07/11 14:43:31;;;;;;;;;2.00;2.00;;;;;40.30;21.35;101594.06;5122075;27;45372;-80
2022/07/11 14:45:56;;;;;;;;;2.25;1.00;;;;;40.23;21.33;101576.06;5120060;27;46305;-81
2022/07/11 14:48:22;;;;;;;;;3.75;2.50;;;;;40.30;21.10;101573.84;5121908;27;45400;-80
2022/07/11 14:50:47;;;;;;;;;3.00;3.00;;;;;40.24;20.93;101584.09;5120235;27;45414;-81
2022/07/11 14:53:12;;;;;;;;;2.75;1.00;;;;;39.84;21.73;101565.63;5117487;27;45425;-81
2022/07/11 14:55:38;;;;;;;;;1.25;1.25;;;;;40.51;21.20;101563.53;5103268;27;46926;-81
2022/07/11 14:58:04;;;;;;;;;2.00;2.00;;;;;40.12;21.73;101577.19;5101307;27;45846;-81
2022/07/11 15:00:30;;;;;;;;;2.00;2.00;;;;;40.52;21.30;101574.31;5124674;27;45480;-81
2022/07/11 15:05:41;;;;;;;;;2.00;2.00;;;;;39.95;21.92;101578.34;5126657;27;45433;-80
2022/07/11 15:13:34;;;;;;;;;2.00;2.00;;;;;39.70;21.69;101572.00;5113987;27;45505;-80
2022/07/11 15:16:00;;;;;;;;;2.75;2.75;;;;;39.59;22.00;101585.00;5104416;27;47088;-80
2022/07/11 15:18:25;;;;;;;;;3.00;3.00;;;;;39.51;22.25;101585.56;5126136;27;45506;-80
2022/07/11 15:20:50;;;;;;;;;2.00;2.00;;;;;39.97;21.74;101578.06;5121432;27;45416;-80
2022/07/11 15:23:16;;;;;;;;;3.25;3.00;;;;;40.03;21.50;101574.19;5123589;27;45194;-80
2022/07/11 15:25:41;;;;;;;;;2.25;2.25;;;;;40.16;21.71;101573.56;5104104;27;47206;-80
2022/07/11 15:28:07;;;;;;;;;2.25;2.25;;;;;40.17;21.32;101566.09;5117198;27;45573;-79
2022/07/11 15:30:32;;;;;;;;;1.00;1.00;;;;;40.19;21.54;101572.19;5120206;27;45476;-80
2022/07/11 15:32:58;;;;;;;;;2.50;2.50;;;;;40.23;21.72;101565.00;5113647;27;45459;-80
2022/07/11 15:35:23;;;;;;;;;3.00;3.00;;;;;40.23;22.01;101568.59;5116918;27;45442;-79
2022/07/11 15:37:48;;;;;;;;;2.00;2.00;;;;;40.15;21.23;101565.59;5094561;27;45772;-79
2022/07/11 15:40:14;;;;;;;;;4.00;2.00;;;;;39.99;21.70;101562.84;5115650;27;45704;-79
2022/07/11 15:42:39;;;;;;;;;2.50;2.50;;;;;40.30;21.55;101558.09;5091152;27;45540;-79
2022/07/11 15:45:08;;;;;;;;;2.50;2.50;;;;;40.45;21.48;101556.34;5094100;27;45884;-79
2022/07/11 15:47:33;;;;;;;;;2.00;2.00;;;;;40.42;20.81;101551.41;5099533;27;45960;-79
2022/07/11 15:49:59;;;;;;;;;3.00;3.00;;;;;40.41;20.96;101552.50;5105278;27;45488;-80
2022/07/11 15:52:24;;;;;;;;;2.75;2.75;;;;;40.18;21.16;101548.41;5091025;27;45804;-79
2022/07/11 15:54:49;;;;;;;;;1.50;1.50;;;;;39.89;21.63;101548.19;5093034;27;45531;-79
2022/07/11 15:57:16;;;;;;;;;3.00;3.00;;;;;40.04;21.28;101542.63;5103260;27;46375;-80
2022/07/11 15:59:41;;;;;;;;;3.25;2.25;;;;;39.94;21.35;101542.66;5094412;27;45639;-80
2022/07/11 16:02:06;;;;;;;;;3.00;1.00;;;;;39.98;21.53;101544.56;5096919;27;45530;-80
2022/07/11 16:04:32;;;;;;;;;2.25;2.25;;;;;40.16;21.26;101543.13;5102154;27;49162;-79
2022/07/11 16:06:57;;;;;;;;;3.00;3.00;;;;;40.03;21.74;101543.75;5103065;27;45829;-79
2022/07/11 16:09:23;;;;;;;;;2.00;1.00;;;;;39.70;22.15;101547.91;5100476;27;45782;-79
2022/07/11 16:11:50;;;;;;;;;3.50;2.25;;;;;39.87;22.02;101540.19;5095638;27;45496;-79
2022/07/11 16:14:15;;;;;;;;;1.00;1.00;;;;;39.17;22.16;101543.75;5107728;27;47961;-79
2022/07/11 16:16:42;;;;;;;;;2.50;2.50;;;;;39.15;22.52;101540.44;5096175;27;45602;-79
2022/07/11 16:19:08;;;;;;;;;1.25;1.25;;;;;39.03;22.06;101542.63;5094243;27;45616;-79
2022/07/11 16:21:34;;;;;;;;;2.00;2.00;;;;;38.81;22.67;101546.41;5109372;27;45572;-79
2022/07/11 16:24:00;;;;;;;;;2.00;1.75;;;;;38.88;22.42;101546.19;5093100;27;46103;-80
2022/07/11 16:26:25;;;;;;;;;1.00;1.00;;;;;38.88;22.79;101543.41;5094374;27;45537;-79
2022/07/11 16:28:55;;;;;;;;;1.00;1.00;;;;;39.47;21.74;101545.72;5101049;27;45306;-80
2022/07/11 16:31:21;;;;;;;;;1.25;1.25;;;;;39.28;22.11;101545.41;5097693;27;46126;-80
2022/07/11 16:33:46;;;;;;;;;0.00;0.00;;;;;39.13;22.44;101546.25;5122146;27;46517;-80
2022/07/11 16:36:11;;;;;;;;;2.75;1.50;;;;;39.13;22.34;101553.69;5094938;27;45816;-80
2022/07/11 16:38:37;;;;;;;;;4.00;2.00;;;;;38.98;22.51;101550.88;5101294;27;45682;-80
2022/07/11 16:43:46;;;;;;;;;1.00;1.00;;;;;38.41;23.23;101547.09;5122311;27;45454;-80
2022/07/11 16:46:12;;;;;;;;;1.00;0.75;;;;;38.76;23.20;101545.56;5127088;27;45510;-78
2022/07/11 16:48:37;;;;;;;;;3.50;1.75;;;;;38.78;22.83;101551.66;5123831;27;45396;-78
2022/07/11 16:51:04;;;;;;;;;1.50;1.25;;;;;38.64;22.84;101547.75;5127517;27;45355;-78
2022/07/11 16:53:31;;;;;;;;;4.25;3.00;;;;;38.85;22.43;101557.75;5115265;27;45600;-78
2022/07/11 16:55:58;;;;;;;;;2.00;2.00;;;;;39.02;22.58;101544.56;5118368;27;45263;-78
2022/07/11 16:58:24;;;;;;;;;1.00;1.00;;;;;38.68;23.03;101546.94;5119811;27;45353;-79
2022/07/11 17:00:50;;;;;;;;;2.75;1.75;;;;;38.97;22.39;101539.00;5101277;27;45475;-79
2022/07/11 17:03:15;;;;;;;;;2.00;1.00;;;;;38.76;23.03;101546.41;5115273;27;45548;-79
2022/07/11 17:05:41;;;;;;;;;2.00;2.00;;;;;38.69;22.90;101556.06;5118429;27;45295;-77
2022/07/11 17:10:53;;;;;;;;;1.00;1.00;;;;;38.65;22.94;101550.22;5120558;27;45378;-78
2022/07/11 17:13:18;;;;;;;;;0.50;0.50;;;;;38.63;22.77;101544.16;5127176;27;45267;-79
2022/07/11 17:15:44;;;;;;;;;0.25;0.25;;;;;38.62;22.83;101552.69;5118700;27;45215;-79
2022/07/11 17:18:09;;;;;;;;;0.00;0.00;;;;;38.49;23.02;101542.97;5103790;27;45485;-79
2022/07/11 17:20:35;;;;;;;;;1.75;0.50;;;;;38.48;23.03;101542.16;5115451;27;45460;-79
2022/07/11 17:23:01;;;;;;;;;1.00;0.25;;;;;38.49;22.80;101541.03;5118233;27;45435;-79
2022/07/11 17:25:27;;;;;;;;;0.00;0.00;;;;;38.53;22.85;101539.41;5102079;27;45421;-79
2022/07/11 17:27:55;;;;;;;;;0.50;0.00;;;;;38.41;22.87;101537.97;5120660;27;45375;-79
2022/07/11 17:30:20;;;;;;;;;0.00;0.00;;;;;38.28;22.88;101546.72;5117950;27;45334;-79
2022/07/11 17:32:45;;;;;;;;;1.25;1.00;;;;;38.14;22.87;101538.97;5115748;27;47848;-79
2022/07/11 17:35:11;;;;;;;;;0.50;0.50;;;;;38.08;23.19;101540.00;5118807;27;45456;-80
2022/07/11 17:37:40;;;;;;;;;0.00;0.00;;;;;38.03;23.50;101533.63;5117800;27;45546;-79
2022/07/11 17:40:14;;;;;;;;;0.25;0.00;;;;;38.00;23.29;101547.94;5103860;27;45405;-79
2022/07/11 17:42:41;;;;;;;;;1.00;0.50;;;;;37.82;23.46;101540.91;5109273;27;45431;-80
2022/07/11 17:45:07;;;;;;;;;1.00;1.00;;;;;37.72;23.52;101543.59;5117280;27;45841;-80
2022/07/11 17:47:39;;;;;;;;;2.00;1.25;;;;;37.44;23.39;101540.06;5097830;27;45529;-80
2022/07/11 17:50:07;;;;;;;;;1.00;1.00;;;;;37.46;23.15;101542.56;5114848;27;45344;-79
2022/07/11 17:52:32;;;;;;;;;0.75;0.75;;;;;37.55;23.35;101537.38;5118905;27;46228;-79
2022/07/11 17:54:57;;;;;;;;;2.75;1.00;;;;;37.52;23.52;101546.16;5114107;27;45420;-79
2022/07/11 17:57:23;;;;;;;;;4.50;1.75;;;;;37.49;23.71;101536.53;5117928;27;45418;-79
2022/07/11 17:59:48;;;;;;;;;0.00;0.00;;;;;37.46;23.36;101539.78;5099768;27;45443;-79
2022/07/11 18:02:15;;;;;;;;;0.75;0.00;;;;;37.37;23.73;101538.63;5102164;27;46969;-80
2022/07/11 18:04:40;;;;;;;;;0.00;0.00;;;;;37.29;23.58;101533.59;5121046;27;45552;-79
2022/07/11 18:07:06;;;;;;;;;0.00;0.00;;;;;37.30;23.53;101546.28;5119561;27;45503;-79
2022/07/11 18:09:31;;;;;;;;;1.00;1.00;;;;;37.17;23.57;101541.19;5121636;27;45456;-80
2022/07/11 18:11:57;;;;;;;;;1.75;1.75;;;;;37.04;24.05;101540.50;5119989;27;45516;-80
2022/07/11 18:14:22;;;;;;;;;0.00;0.00;;;;;36.97;24.17;101548.09;5114607;27;45437;-79
2022/07/11 18:16:48;;;;;;;;;4.75;3.75;;;;;36.89;24.12;101548.56;5114241;27;45506;-79
2022/07/11 18:19:13;;;;;;;;;1.50;1.50;;;;;36.96;23.92;101548.41;5095070;27;45564;-79
2022/07/11 18:21:39;;;;;;;;;2.50;2.50;;;;;36.89;24.05;101550.50;5116602;27;46427;-80
2022/07/11 18:24:04;;;;;;;;;1.50;1.00;;;;;36.87;24.12;101547.19;5090548;27;45418;-79
2022/07/11 18:26:30;;;;;;;;;3.75;3.00;;;;;36.77;23.96;101549.84;5115148;27;45428;-80
2022/07/11 18:28:55;;;;;;;;;0.25;0.00;;;;;36.64;24.51;101556.53;5114723;27;45606;-80
2022/07/11 18:31:20;;;;;;;;;2.00;1.50;;;;;36.51;23.89;101554.19;5113827;27;48160;-79
2022/07/11 18:33:46;;;;;;;;;3.00;3.00;;;;;36.38;24.35;101557.28;5114393;27;45377;-80
2022/07/11 18:36:11;;;;;;;;;3.25;1.75;;;;;36.10;24.84;101553.59;5115269;27;45368;-81
2022/07/11 18:41:12;;;;;;;;;2.50;2.50;;;;;36.13;24.63;101547.59;5117352;27;45432;-81
2022/07/11 18:41:23;;;;;;;;;5.00;3.50;;;;;36.51;23.82;101552.22;5118860;27;46251;-81
2022/07/11 18:43:58;;;;;;;;;3.75;2.75;;;;;36.50;24.34;101547.00;5118792;27;45949;-81
2022/07/11 18:46:24;;;;;;;;;4.75;4.75;;;;;36.34;24.63;101544.03;5123303;27;45375;-81
2022/07/11 18:48:50;;;;;;;;;3.50;2.25;;;;;36.18;24.41;101550.41;5121202;27;45388;-81
2022/07/11 18:51:15;;;;;;;;;4.00;3.75;;;;;36.28;24.51;101550.56;5122532;27;45438;-81
2022/07/11 18:53:40;;;;;;;;;7.00;6.00;;;;;36.23;24.51;101556.00;5104854;27;45471;-80
2022/07/11 18:56:06;;;;;;;;;1.00;0.25;;;;;36.27;24.79;101556.31;5124884;27;46045;-81
2022/07/11 18:58:32;;;;;;;;;1.75;1.50;;;;;36.16;24.70;101558.06;5125805;27;45782;-81
2022/07/11 19:00:57;;;;;;;;;1.25;1.25;;;;;36.18;25.01;101549.56;5127999;27;46145;-81
2022/07/11 19:03:23;;;;;;;;;5.25;3.25;;;;;35.93;24.80;101548.13;5109488;27;45399;-80
2022/07/11 19:05:48;;;;;;;;;3.50;2.75;;;;;35.86;24.59;101555.72;5101636;27;47334;-81
2022/07/11 19:08:14;;;;;;;;;2.50;2.50;;;;;35.78;25.07;101567.16;5119406;27;45501;-81
2022/07/11 19:10:39;;;;;;;;;3.50;1.50;;;;;35.92;25.15;101562.13;5125519;27;46227;-81
2022/07/11 19:13:04;;;;;;;;;2.00;1.50;;;;;35.91;24.36;101565.94;5113730;27;46175;-81
2022/07/11 19:15:30;;;;;;;;;3.75;3.75;;;;;35.91;25.13;101560.44;5124620;27;45420;-81
2022/07/11 19:17:55;;;;;;;;;5.25;5.00;;;;;35.96;24.59;101563.28;5120933;27;45360;-82
2022/07/11 19:20:20;;;;;;;;;4.25;2.00;;;;;35.89;25.10;101562.59;5119123;27;45589;-81
2022/07/11 19:22:46;;;;;;;;;1.50;1.50;;;;;35.85;24.49;101572.47;5116964;27;45360;-81
2022/07/11 19:25:12;;;;;;;;;3.00;2.00;;;;;35.82;24.81;101571.03;5121628;27;46784;-81
2022/07/11 19:27:37;;;;;;;;;4.00;1.50;;;;;35.77;24.74;101570.13;5122739;27;45508;-81
2022/07/11 19:30:04;;;;;;;;;3.50;3.50;;;;;35.73;24.59;101569.78;5108295;27;47341;-81
2022/07/11 19:32:29;;;;;;;;;3.50;3.50;;;;;35.79;24.41;101573.44;5115086;27;45438;-81
2022/07/11 19:34:55;;;;;;;;;5.00;5.00;;;;;35.86;24.64;101579.63;5123997;27;45466;-81
2022/07/11 19:37:20;;;;;;;;;9.25;6.75;;;;;35.44;24.91;101574.50;5119359;27;45369;-81
2022/07/11 19:39:45;;;;;;;;;7.00;7.00;;;;;35.16;25.25;101574.50;5118285;27;45460;-81